Date,TemperatureHighF,TemperatureAvgF,TemperatureLowF,DewpointHighF,DewpointAvgF,DewpointLowF,HumidityHigh,HumidityAvg,HumidityLow,PressureMaxIn,PressureMinIn,WindSpeedMaxMPH,WindSpeedAvgMPH,GustSpeedMaxMPH,PrecipitationSumIn
2013-11-1,87.1,59.3,42.4,50.2,42.5,24.1,95,62,13,29.92,29.92,10,1,10,0.00
2013-11-2,71.1,55.5,42.1,53.3,45.1,39.2,94,71,45,29.92,29.92,8,1,8,0.00
2013-11-3,74.5,52.4,37.6,46.3,35.0,14.4,99,63,11,30.05,29.92,8,1,13,0.00
2013-11-4,76.8,57.6,38.1,42.2,27.4,14.4,90,43,11,30.05,30.05,19,2,28,0.00
2013-11-5,79.7,61.2,48.4,43.5,35.3,26.6,78,41,18,30.05,30.05,7,1,14,0.00
2013-11-6,78.4,58.9,43.7,43.6,37.5,17.6,82,51,12,30.05,30.05,8,0,14,0.00
2013-11-7,79.7,59.8,46.9,49.5,41.7,31.7,90,57,21,30.05,30.05,8,1,11,0.00
2013-11-8,79.2,56.7,41.7,53.9,44.8,39.8,94,69,35,30.05,30.05,8,1,11,0.00
2013-11-9,83.8,57.0,39.2,52.2,44.5,37.9,98,70,24,30.05,30.05,6,0,9,0.00
2013-11-10,68.9,52.1,42.4,53.3,47.2,42.2,99,85,54,30.05,30.05,8,1,9,0.00
2013-11-11,71.8,52.9,40.1,51.0,46.0,39.8,99,80,47,30.05,30.05,4,0,6,0.00
2013-11-12,69.3,55.8,52.7,50.1,47.6,46.1,82,74,47,30.05,30.05,3,0,4,0.00
2013-11-13,77.2,59.7,41.0,54.7,50.2,40.2,98,74,39,30.05,30.05,8,1,12,0.00
2013-11-14,63.3,50.3,44.8,53.0,48.3,43.8,99,93,65,30.05,30.05,3,0,4,0.00
2013-11-15,74.5,51.5,37.2,50.4,41.1,34.8,99,73,27,30.05,29.85,9,1,14,0.00
2013-11-16,69.6,50.8,36.7,49.7,42.3,34.6,97,76,36,29.85,29.85,9,1,12,0.00
2013-11-17,69.8,50.3,39.2,51.3,44.7,38.6,99,83,51,29.85,29.85,5,0,9,0.00
2013-11-18,64.8,50.5,38.7,49.4,44.4,38.2,99,81,53,29.85,29.85,6,0,11,0.00
2013-11-19,58.3,54.2,50.7,54.5,51.2,46.5,95,90,81,29.85,29.85,2,0,4,0.35
2013-11-20,53.8,52.5,51.8,51.5,50.5,49.8,93,93,92,29.85,29.85,4,0,6,0.38
2013-11-21,67.5,57.5,50.5,50.1,29.2,12.8,95,45,14,29.85,29.85,16,4,26,0.00
2013-11-22,77.4,69.7,55.0,24.3,16.5,9.6,18,13,11,29.85,29.85,17,6,26,0.00
2013-11-23,77.0,62.2,39.0,41.5,25.4,14.4,90,34,11,30.11,29.85,8,4,17,0.00
2013-11-24,69.8,48.3,34.0,45.6,38.2,30.6,91,71,36,30.25,30.10,5,0,10,0.00
2013-11-25,72.7,49.3,35.6,46.0,40.7,33.8,99,76,37,30.33,30.24,6,0,9,0.00
2013-11-26,72.9,50.5,37.0,43.7,39.7,33.7,98,71,28,30.26,30.03,3,0,4,0.00
2013-11-27,72.0,53.4,41.4,45.8,40.5,35.9,90,64,35,30.04,29.83,9,1,11,0.00
2013-11-28,77.4,52.6,38.7,46.4,41.7,37.6,97,72,32,30.06,29.86,7,0,10,0.00
2013-11-29,75.6,52.5,37.8,47.1,42.4,35.7,99,73,35,30.20,30.06,4,0,8,0.00
2013-11-30,72.3,51.6,40.3,47.7,43.2,39.1,96,76,37,30.26,30.17,5,0,8,0.00